sensor_id;sensor_type;location;lat;lon;timestamp;pressure;altitude;pressure_sealevel;temperature;humidity
61571;BME280;47463;49.884;10.010;2024-03-17T00:00:01;102750;;;3.2;82
61571;BME280;47463;49.884;10.010;2024-03-17T00:05:01;102750;;;3.4;82
61571;BME280;47463;49.884;10.010;2024-03-17T00:10:01;102759.99999999999;;;3.5;81
61571;BME280;47463;49.884;10.010;2024-03-17T00:15:01;102750;;;3.4;82
61571;BME280;47463;49.884;10.010;2024-03-17T00:20:01;102770;;;3.5;82
61571;BME280;47463;49.884;10.010;2024-03-17T00:25:01;102770;;;3.5;81
61571;BME280;47463;49.884;10.010;2024-03-17T00:30:01;102770;;;3.4;81
61571;BME280;47463;49.884;10.010;2024-03-17T00:35:01;102770;;;3.5;82
61571;BME280;47463;49.884;10.010;2024-03-17T00:40:01;102770;;;3.6;81
61571;BME280;47463;49.884;10.010;2024-03-17T00:45:01;102770;;;3.6;81
61571;BME280;47463;49.884;10.010;2024-03-17T00:50:01;102770;;;3.6;81
61571;BME280;47463;49.884;10.010;2024-03-17T00:55:01;102770;;;3.4;81
61571;BME280;47463;49.884;10.010;2024-03-17T01:00:01;102759.99999999999;;;3.3;82
61571;BME280;47463;49.884;10.010;2024-03-17T01:05:01;102759.99999999999;;;3.3;82
61571;BME280;47463;49.884;10.010;2024-03-17T01:10:01;102750;;;3.1;82
61571;BME280;47463;49.884;10.010;2024-03-17T01:15:02;102740.00000000001;;;3;83
61571;BME280;47463;49.884;10.010;2024-03-17T01:20:01;102730;;;3.1;83
61571;BME280;47463;49.884;10.010;2024-03-17T01:25:01;102740.00000000001;;;2.9;83
61571;BME280;47463;49.884;10.010;2024-03-17T01:30:01;102730;;;2.7;83
61571;BME280;47463;49.884;10.010;2024-03-17T01:35:01;102730;;;2.7;83
61571;BME280;47463;49.884;10.010;2024-03-17T01:40:01;102720;;;2.6;83
61571;BME280;47463;49.884;10.010;2024-03-17T01:45:01;102720;;;2.7;84
61571;BME280;47463;49.884;10.010;2024-03-17T01:50:01;102709.99999999999;;;2.9;82
61571;BME280;47463;49.884;10.010;2024-03-17T01:55:01;102690.00000000001;;;2.9;82
61571;BME280;47463;49.884;10.010;2024-03-17T02:00:01;102700;;;2.8;81
61571;BME280;47463;49.884;10.010;2024-03-17T02:05:01;102690.00000000001;;;2.5;82
61571;BME280;47463;49.884;10.010;2024-03-17T02:10:01;102680;;;2.4;83
61571;BME280;47463;49.884;10.010;2024-03-17T02:15:01;102670;;;2.3;83
61571;BME280;47463;49.884;10.010;2024-03-17T02:20:01;102670;;;2.1;83
61571;BME280;47463;49.884;10.010;2024-03-17T02:25:01;102680;;;2;84
61571;BME280;47463;49.884;10.010;2024-03-17T02:30:01;102670;;;1.9;84
61571;BME280;47463;49.884;10.010;2024-03-17T02:35:01;102670;;;1.8;84
61571;BME280;47463;49.884;10.010;2024-03-17T02:40:01;102670;;;1.9;84
61571;BME280;47463;49.884;10.010;2024-03-17T02:45:01;102680;;;1.9;84
61571;BME280;47463;49.884;10.010;2024-03-17T02:50:01;102670;;;1.6;84
61571;BME280;47463;49.884;10.010;2024-03-17T02:55:01;102670;;;1.6;84
61571;BME280;47463;49.884;10.010;2024-03-17T03:00:01;102680;;;1.5;84
61571;BME280;47463;49.884;10.010;2024-03-17T03:05:01;102670;;;1.5;84
61571;BME280;47463;49.884;10.010;2024-03-17T03:10:01;102680;;;1.5;84
61571;BME280;47463;49.884;10.010;2024-03-17T03:15:01;102670;;;1.2;84
61571;BME280;47463;49.884;10.010;2024-03-17T03:20:01;102670;;;1.2;84
61571;BME280;47463;49.884;10.010;2024-03-17T03:25:01;102670;;;1.2;84
61571;BME280;47463;49.884;10.010;2024-03-17T03:30:01;102670;;;1.2;84
61571;BME280;47463;49.884;10.010;2024-03-17T03:35:01;102680;;;1.2;84
61571;BME280;47463;49.884;10.010;2024-03-17T03:40:01;102690.00000000001;;;1.2;84
61571;BME280;47463;49.884;10.010;2024-03-17T03:45:01;102700;;;1;84
61571;BME280;47463;49.884;10.010;2024-03-17T03:50:01;102700;;;1;84
61571;BME280;47463;49.884;10.010;2024-03-17T03:55:01;102700;;;0.9;84
61571;BME280;47463;49.884;10.010;2024-03-17T04:00:01;102690.00000000001;;;0.8;84
61571;BME280;47463;49.884;10.010;2024-03-17T04:05:01;102709.99999999999;;;1;84
61571;BME280;47463;49.884;10.010;2024-03-17T04:10:01;102700;;;0.9;83
61571;BME280;47463;49.884;10.010;2024-03-17T04:15:01;102709.99999999999;;;1;84
61571;BME280;47463;49.884;10.010;2024-03-17T04:20:01;102700;;;1;84
61571;BME280;47463;49.884;10.010;2024-03-17T04:25:01;102700;;;1.1;83
61571;BME280;47463;49.884;10.010;2024-03-17T04:30:01;102709.99999999999;;;1.2;83
61571;BME280;47463;49.884;10.010;2024-03-17T04:35:01;102709.99999999999;;;1.5;82
61571;BME280;47463;49.884;10.010;2024-03-17T04:40:01;102700;;;1.7;82
61571;BME280;47463;49.884;10.010;2024-03-17T04:45:01;102700;;;1.6;82
61571;BME280;47463;49.884;10.010;2024-03-17T04:50:01;102720;;;1.5;82
61571;BME280;47463;49.884;10.010;2024-03-17T04:55:01;102730;;;1.5;83
61571;BME280;47463;49.884;10.010;2024-03-17T05:00:01;102720;;;1.7;83
61571;BME280;47463;49.884;10.010;2024-03-17T05:05:01;102720;;;1.8;83
61571;BME280;47463;49.884;10.010;2024-03-17T05:10:01;102730;;;2.2;83
61571;BME280;47463;49.884;10.010;2024-03-17T05:15:01;102730;;;2.3;82
61571;BME280;47463;49.884;10.010;2024-03-17T05:20:01;102750;;;2.6;82
61571;BME280;47463;49.884;10.010;2024-03-17T05:25:01;102740.00000000001;;;2.6;81
61571;BME280;47463;49.884;10.010;2024-03-17T05:30:01;102740.00000000001;;;2.7;82
61571;BME280;47463;49.884;10.010;2024-03-17T05:35:01;102750;;;2.7;81
61571;BME280;47463;49.884;10.010;2024-03-17T05:40:01;102740.00000000001;;;2.8;82
61571;BME280;47463;49.884;10.010;2024-03-17T05:45:01;102750;;;3;81
61571;BME280;47463;49.884;10.010;2024-03-17T05:50:01;102740.00000000001;;;3.2;79
61571;BME280;47463;49.884;10.010;2024-03-17T05:55:01;102740.00000000001;;;3.1;80
61571;BME280;47463;49.884;10.010;2024-03-17T06:00:01;102730;;;3;80
61571;BME280;47463;49.884;10.010;2024-03-17T06:05:01;102740.00000000001;;;3;81
61571;BME280;47463;49.884;10.010;2024-03-17T06:10:01;102730;;;3.2;79
61571;BME280;47463;49.884;10.010;2024-03-17T06:15:02;102740.00000000001;;;3.1;80
61571;BME280;47463;49.884;10.010;2024-03-17T06:20:01;102730;;;3.2;80
61571;BME280;47463;49.884;10.010;2024-03-17T06:25:01;102730;;;3.3;80
61571;BME280;47463;49.884;10.010;2024-03-17T06:30:01;102730;;;3.3;81
61571;BME280;47463;49.884;10.010;2024-03-17T06:35:01;102730;;;3.4;81
61571;BME280;47463;49.884;10.010;2024-03-17T06:40:01;102720;;;3.6;81
61571;BME280;47463;49.884;10.010;2024-03-17T06:45:01;102720;;;4.4;80
61571;BME280;47463;49.884;10.010;2024-03-17T06:50:01;102730;;;4.6;79
61571;BME280;47463;49.884;10.010;2024-03-17T06:55:01;102720;;;5;78
61571;BME280;47463;49.884;10.010;2024-03-17T07:00:01;102709.99999999999;;;5.4;77
61571;BME280;47463;49.884;10.010;2024-03-17T07:05:01;102709.99999999999;;;5.9;76
61571;BME280;47463;49.884;10.010;2024-03-17T07:10:01;102709.99999999999;;;5.7;74
61571;BME280;47463;49.884;10.010;2024-03-17T07:15:01;102709.99999999999;;;6.1;74
61571;BME280;47463;49.884;10.010;2024-03-17T07:20:01;102709.99999999999;;;6.8;73
61571;BME280;47463;49.884;10.010;2024-03-17T07:25:01;102709.99999999999;;;6.5;72
61571;BME280;47463;49.884;10.010;2024-03-17T07:30:01;102720;;;6.5;72
61571;BME280;47463;49.884;10.010;2024-03-17T07:35:01;102730;;;6;73
61571;BME280;47463;49.884;10.010;2024-03-17T07:40:03;102709.99999999999;;;5.8;73
61571;BME280;47463;49.884;10.010;2024-03-17T07:45:01;102720;;;5.7;74
61571;BME280;47463;49.884;10.010;2024-03-17T07:50:01;102720;;;6;74
61571;BME280;47463;49.884;10.010;2024-03-17T07:55:01;102700;;;6.4;75
61571;BME280;47463;49.884;10.010;2024-03-17T08:00:01;102709.99999999999;;;6.2;74
61571;BME280;47463;49.884;10.010;2024-03-17T08:05:01;102709.99999999999;;;6.5;73
61571;BME280;47463;49.884;10.010;2024-03-17T08:10:01;102709.99999999999;;;6.5;73
61571;BME280;47463;49.884;10.010;2024-03-17T08:15:01;102709.99999999999;;;6.7;72
61571;BME280;47463;49.884;10.010;2024-03-17T08:20:01;102709.99999999999;;;6.9;72
61571;BME280;47463;49.884;10.010;2024-03-17T08:25:01;102709.99999999999;;;7.3;70
61571;BME280;47463;49.884;10.010;2024-03-17T08:30:01;102709.99999999999;;;7.4;69
61571;BME280;47463;49.884;10.010;2024-03-17T08:35:01;102700;;;8.1;68
61571;BME280;47463;49.884;10.010;2024-03-17T08:40:01;102709.99999999999;;;8;68
61571;BME280;47463;49.884;10.010;2024-03-17T08:45:01;102700;;;8.1;67
61571;BME280;47463;49.884;10.010;2024-03-17T08:50:01;102690.00000000001;;;8.3;66
61571;BME280;47463;49.884;10.010;2024-03-17T08:55:01;102680;;;8.9;65
61571;BME280;47463;49.884;10.010;2024-03-17T09:00:01;102680;;;8.7;63
61571;BME280;47463;49.884;10.010;2024-03-17T09:05:01;102670;;;8.7;61
61571;BME280;47463;49.884;10.010;2024-03-17T09:10:01;102670;;;8.5;62
61571;BME280;47463;49.884;10.010;2024-03-17T09:15:01;102670;;;8.6;61
61571;BME280;47463;49.884;10.010;2024-03-17T09:20:01;102670;;;8.9;60
61571;BME280;47463;49.884;10.010;2024-03-17T09:25:01;102659.99999999999;;;8.7;61
61571;BME280;47463;49.884;10.010;2024-03-17T09:30:01;102659.99999999999;;;9;61
61571;BME280;47463;49.884;10.010;2024-03-17T09:35:01;102659.99999999999;;;8.9;61
61571;BME280;47463;49.884;10.010;2024-03-17T09:40:01;102640.00000000001;;;8.9;61
61571;BME280;47463;49.884;10.010;2024-03-17T09:45:01;102640.00000000001;;;9.2;61
61571;BME280;47463;49.884;10.010;2024-03-17T09:50:01;102640.00000000001;;;9.8;60
61571;BME280;47463;49.884;10.010;2024-03-17T09:55:01;102640.00000000001;;;10.7;56
61571;BME280;47463;49.884;10.010;2024-03-17T10:00:01;102630;;;11.3;54
61571;BME280;47463;49.884;10.010;2024-03-17T10:05:01;102630;;;11.2;52
61571;BME280;47463;49.884;10.010;2024-03-17T10:10:10;102620;;;11.5;52
61571;BME280;47463;49.884;10.010;2024-03-17T10:15:01;102620;;;11.3;52
61571;BME280;47463;49.884;10.010;2024-03-17T10:20:10;102600;;;11.3;51
61571;BME280;47463;49.884;10.010;2024-03-17T10:25:01;102600;;;10.9;52
61571;BME280;47463;49.884;10.010;2024-03-17T10:30:01;102609.99999999999;;;10.6;52
61571;BME280;47463;49.884;10.010;2024-03-17T10:35:01;102609.99999999999;;;10.5;52
61571;BME280;47463;49.884;10.010;2024-03-17T10:40:01;102609.99999999999;;;11.2;51
61571;BME280;47463;49.884;10.010;2024-03-17T10:45:01;102580;;;11.3;50
61571;BME280;47463;49.884;10.010;2024-03-17T10:50:01;102570;;;10.6;51
61571;BME280;47463;49.884;10.010;2024-03-17T10:55:02;102570;;;10.7;51
61571;BME280;47463;49.884;10.010;2024-03-17T11:00:02;102570;;;11.2;52
61571;BME280;47463;49.884;10.010;2024-03-17T11:05:02;102559.99999999999;;;10.6;51
61571;BME280;47463;49.884;10.010;2024-03-17T11:10:01;102550;;;11.1;52
61571;BME280;47463;49.884;10.010;2024-03-17T11:15:25;102540.00000000001;;;11.3;50
61571;BME280;47463;49.884;10.010;2024-03-17T11:20:08;102530;;;11.5;50
61571;BME280;47463;49.884;10.010;2024-03-17T11:25:18;102540.00000000001;;;11.3;48
61571;BME280;47463;49.884;10.010;2024-03-17T11:30:35;102540.00000000001;;;11.7;49
61571;BME280;47463;49.884;10.010;2024-03-17T11:35:12;102530;;;11.4;48
61571;BME280;47463;49.884;10.010;2024-03-17T11:40:01;102520;;;11.4;48
61571;BME280;47463;49.884;10.010;2024-03-17T11:45:02;102520;;;11;50
61571;BME280;47463;49.884;10.010;2024-03-17T11:50:02;102520;;;10.9;48
61571;BME280;47463;49.884;10.010;2024-03-17T11:55:01;102520;;;11.3;50
61571;BME280;47463;49.884;10.010;2024-03-17T12:00:01;102520;;;11.3;50
61571;BME280;47463;49.884;10.010;2024-03-17T12:05:01;102509.99999999999;;;11;51
61571;BME280;47463;49.884;10.010;2024-03-17T12:10:01;102509.99999999999;;;11;51
61571;BME280;47463;49.884;10.010;2024-03-17T12:15:01;102490.00000000001;;;11.3;51
61571;BME280;47463;49.884;10.010;2024-03-17T12:20:01;102500;;;11.5;50
61571;BME280;47463;49.884;10.010;2024-03-17T12:25:01;102500;;;11.3;51
61571;BME280;47463;49.884;10.010;2024-03-17T12:30:01;102500;;;10.8;49
61571;BME280;47463;49.884;10.010;2024-03-17T12:35:01;102490.00000000001;;;11;49
61571;BME280;47463;49.884;10.010;2024-03-17T12:40:01;102480;;;11.2;49
61571;BME280;47463;49.884;10.010;2024-03-17T12:45:01;102480;;;10.9;50
61571;BME280;47463;49.884;10.010;2024-03-17T12:50:01;102480;;;10.8;50
61571;BME280;47463;49.884;10.010;2024-03-17T12:55:01;102480;;;11;50
61571;BME280;47463;49.884;10.010;2024-03-17T13:00:01;102470;;;11.4;48
61571;BME280;47463;49.884;10.010;2024-03-17T13:05:06;102470;;;11.2;48
61571;BME280;47463;49.884;10.010;2024-03-17T13:10:01;102470;;;11;50
61571;BME280;47463;49.884;10.010;2024-03-17T13:15:01;102470;;;11;51
61571;BME280;47463;49.884;10.010;2024-03-17T13:20:01;102470;;;11;50
61571;BME280;47463;49.884;10.010;2024-03-17T13:25:01;102459.99999999999;;;11.2;48
61571;BME280;47463;49.884;10.010;2024-03-17T13:30:01;102450;;;11.4;49
61571;BME280;47463;49.884;10.010;2024-03-17T13:35:01;102450;;;11.3;48
61571;BME280;47463;49.884;10.010;2024-03-17T13:40:01;102450;;;11.4;47
61571;BME280;47463;49.884;10.010;2024-03-17T13:45:01;102450;;;11.5;48
61571;BME280;47463;49.884;10.010;2024-03-17T13:50:01;102440.00000000001;;;11.9;46
61571;BME280;47463;49.884;10.010;2024-03-17T13:55:01;102430;;;11.9;47
61571;BME280;47463;49.884;10.010;2024-03-17T14:00:01;102430;;;11.8;47
61571;BME280;47463;49.884;10.010;2024-03-17T14:05:01;102420;;;11.9;46
61571;BME280;47463;49.884;10.010;2024-03-17T14:10:01;102409.99999999999;;;11.6;48
61571;BME280;47463;49.884;10.010;2024-03-17T14:15:01;102409.99999999999;;;11.6;48
61571;BME280;47463;49.884;10.010;2024-03-17T14:20:01;102400;;;11.4;49
61571;BME280;47463;49.884;10.010;2024-03-17T14:25:01;102400;;;11.5;49
61571;BME280;47463;49.884;10.010;2024-03-17T14:30:01;102390;;;11.6;49
61571;BME280;47463;49.884;10.010;2024-03-17T14:35:01;102400;;;11.4;49
61571;BME280;47463;49.884;10.010;2024-03-17T14:40:01;102380;;;11.2;50
61571;BME280;47463;49.884;10.010;2024-03-17T14:45:01;102370;;;10.9;50
61571;BME280;47463;49.884;10.010;2024-03-17T14:50:01;102360;;;11;50
61571;BME280;47463;49.884;10.010;2024-03-17T14:55:01;102370;;;11.1;50
61571;BME280;47463;49.884;10.010;2024-03-17T15:00:01;102350;;;11;50
61571;BME280;47463;49.884;10.010;2024-03-17T15:05:01;102350;;;11;50
61571;BME280;47463;49.884;10.010;2024-03-17T15:10:01;102350;;;10.9;50
61571;BME280;47463;49.884;10.010;2024-03-17T15:15:01;102340;;;11;49
61571;BME280;47463;49.884;10.010;2024-03-17T15:20:01;102340;;;10.9;50
61571;BME280;47463;49.884;10.010;2024-03-17T15:25:01;102330;;;10.8;50
61571;BME280;47463;49.884;10.010;2024-03-17T15:30:01;102340;;;10.8;50
61571;BME280;47463;49.884;10.010;2024-03-17T15:35:01;102330;;;10.8;51
61571;BME280;47463;49.884;10.010;2024-03-17T15:40:01;102340;;;10.8;51
61571;BME280;47463;49.884;10.010;2024-03-17T15:45:01;102330;;;10.7;51
61571;BME280;47463;49.884;10.010;2024-03-17T15:50:01;102330;;;10.8;51
61571;BME280;47463;49.884;10.010;2024-03-17T15:55:01;102330;;;10.7;51
61571;BME280;47463;49.884;10.010;2024-03-17T16:00:01;102320;;;10.7;51
61571;BME280;47463;49.884;10.010;2024-03-17T16:05:01;102330;;;10.7;50
61571;BME280;47463;49.884;10.010;2024-03-17T16:10:01;102340;;;10.7;50
61571;BME280;47463;49.884;10.010;2024-03-17T16:15:01;102330;;;10.7;50
61571;BME280;47463;49.884;10.010;2024-03-17T16:20:01;102330;;;10.6;52
61571;BME280;47463;49.884;10.010;2024-03-17T16:25:01;102320;;;10.6;52
61571;BME280;47463;49.884;10.010;2024-03-17T16:30:01;102320;;;10.5;52
61571;BME280;47463;49.884;10.010;2024-03-17T16:35:01;102320;;;10.5;54
61571;BME280;47463;49.884;10.010;2024-03-17T16:40:01;102320;;;10.5;54
61571;BME280;47463;49.884;10.010;2024-03-17T16:45:03;102320;;;10.5;54
61571;BME280;47463;49.884;10.010;2024-03-17T16:50:01;102320;;;10.4;54
61571;BME280;47463;49.884;10.010;2024-03-17T16:55:01;102330;;;10.4;55
61571;BME280;47463;49.884;10.010;2024-03-17T17:00:01;102330;;;10.3;56
61571;BME280;47463;49.884;10.010;2024-03-17T17:05:01;102330;;;10.2;57
61571;BME280;47463;49.884;10.010;2024-03-17T17:10:01;102330;;;10.2;58
61571;BME280;47463;49.884;10.010;2024-03-17T17:15:01;102330;;;9.9;58
61571;BME280;47463;49.884;10.010;2024-03-17T17:20:01;102330;;;9.8;58
61571;BME280;47463;49.884;10.010;2024-03-17T17:25:01;102340;;;9.7;59
61571;BME280;47463;49.884;10.010;2024-03-17T17:30:01;102320;;;9.6;61
61571;BME280;47463;49.884;10.010;2024-03-17T17:35:01;102320;;;9.4;61
61571;BME280;47463;49.884;10.010;2024-03-17T17:40:01;102320;;;9.2;61
61571;BME280;47463;49.884;10.010;2024-03-17T17:45:01;102320;;;9.1;63
61571;BME280;47463;49.884;10.010;2024-03-17T17:50:01;102310;;;8.9;63
61571;BME280;47463;49.884;10.010;2024-03-17T17:55:01;102310;;;8.8;64
61571;BME280;47463;49.884;10.010;2024-03-17T18:00:01;102310;;;8.6;64
61571;BME280;47463;49.884;10.010;2024-03-17T18:05:01;102300;;;8.5;65
61571;BME280;47463;49.884;10.010;2024-03-17T18:10:01;102310;;;8.4;65
61571;BME280;47463;49.884;10.010;2024-03-17T18:15:01;102310;;;8.1;66
61571;BME280;47463;49.884;10.010;2024-03-17T18:20:01;102310;;;7.9;67
61571;BME280;47463;49.884;10.010;2024-03-17T18:25:01;102300;;;7.6;68
61571;BME280;47463;49.884;10.010;2024-03-17T18:30:01;102300;;;7.5;69
61571;BME280;47463;49.884;10.010;2024-03-17T18:35:01;102310;;;7.3;69
61571;BME280;47463;49.884;10.010;2024-03-17T18:40:01;102300;;;7.1;69
61571;BME280;47463;49.884;10.010;2024-03-17T18:45:01;102310;;;7.1;69
61571;BME280;47463;49.884;10.010;2024-03-17T18:50:01;102310;;;6.9;69
61571;BME280;47463;49.884;10.010;2024-03-17T18:55:01;102310;;;6.7;70
61571;BME280;47463;49.884;10.010;2024-03-17T19:00:01;102310;;;6.5;70
61571;BME280;47463;49.884;10.010;2024-03-17T19:05:01;102310;;;6.3;71
61571;BME280;47463;49.884;10.010;2024-03-17T19:10:01;102310;;;6.2;71
61571;BME280;47463;49.884;10.010;2024-03-17T19:15:01;102310;;;6.2;71
61571;BME280;47463;49.884;10.010;2024-03-17T19:20:01;102320;;;6.1;71
61571;BME280;47463;49.884;10.010;2024-03-17T19:25:01;102300;;;6.1;71
61571;BME280;47463;49.884;10.010;2024-03-17T19:30:01;102300;;;5.9;71
61571;BME280;47463;49.884;10.010;2024-03-17T19:35:01;102300;;;6.1;70
61571;BME280;47463;49.884;10.010;2024-03-17T19:40:01;102300;;;6;71
61571;BME280;47463;49.884;10.010;2024-03-17T19:45:01;102300;;;6.1;71
61571;BME280;47463;49.884;10.010;2024-03-17T19:50:01;102290;;;6;72
61571;BME280;47463;49.884;10.010;2024-03-17T19:55:01;102290;;;6;72
61571;BME280;47463;49.884;10.010;2024-03-17T20:00:01;102300;;;6;71
61571;BME280;47463;49.884;10.010;2024-03-17T20:05:01;102310;;;6;71
61571;BME280;47463;49.884;10.010;2024-03-17T20:10:01;102280;;;6.1;71
61571;BME280;47463;49.884;10.010;2024-03-17T20:15:01;102300;;;6.4;70
61571;BME280;47463;49.884;10.010;2024-03-17T20:20:01;102290;;;6.3;71
61571;BME280;47463;49.884;10.010;2024-03-17T20:25:01;102300;;;6.4;70
61571;BME280;47463;49.884;10.010;2024-03-17T20:30:01;102290;;;6.5;69
61571;BME280;47463;49.884;10.010;2024-03-17T20:35:01;102280;;;6.4;70
61571;BME280;47463;49.884;10.010;2024-03-17T20:40:01;102280;;;6.4;70
61571;BME280;47463;49.884;10.010;2024-03-17T20:45:01;102270;;;6.4;70
61571;BME280;47463;49.884;10.010;2024-03-17T20:50:01;102270;;;6.4;69
61571;BME280;47463;49.884;10.010;2024-03-17T20:55:01;102260;;;6.4;69
61571;BME280;47463;49.884;10.010;2024-03-17T21:00:01;102270;;;6.4;70
61571;BME280;47463;49.884;10.010;2024-03-17T21:05:01;102260;;;6.5;69
61571;BME280;47463;49.884;10.010;2024-03-17T21:10:01;102260;;;6.5;69
61571;BME280;47463;49.884;10.010;2024-03-17T21:15:01;102270;;;6.3;70
61571;BME280;47463;49.884;10.010;2024-03-17T21:20:01;102260;;;6.3;70
61571;BME280;47463;49.884;10.010;2024-03-17T21:25:01;102260;;;6.2;71
61571;BME280;47463;49.884;10.010;2024-03-17T21:30:01;102260;;;6.2;70
61571;BME280;47463;49.884;10.010;2024-03-17T21:35:01;102260;;;6.4;70
61571;BME280;47463;49.884;10.010;2024-03-17T21:40:01;102260;;;6.3;70
61571;BME280;47463;49.884;10.010;2024-03-17T21:45:01;102260;;;6.3;70
61571;BME280;47463;49.884;10.010;2024-03-17T21:50:01;102270;;;6.4;69
61571;BME280;47463;49.884;10.010;2024-03-17T21:55:01;102250;;;6.4;69
61571;BME280;47463;49.884;10.010;2024-03-17T22:00:01;102250;;;6.4;70
61571;BME280;47463;49.884;10.010;2024-03-17T22:05:01;102250;;;6.3;69
61571;BME280;47463;49.884;10.010;2024-03-17T22:10:01;102260;;;6.4;69
61571;BME280;47463;49.884;10.010;2024-03-17T22:15:01;102250;;;6.4;69
61571;BME280;47463;49.884;10.010;2024-03-17T22:20:01;102240;;;6.4;70
61571;BME280;47463;49.884;10.010;2024-03-17T22:25:01;102230;;;6.6;69
61571;BME280;47463;49.884;10.010;2024-03-17T22:30:01;102210;;;6.5;69
61571;BME280;47463;49.884;10.010;2024-03-17T22:35:01;102210;;;6.5;69
61571;BME280;47463;49.884;10.010;2024-03-17T22:40:01;102200;;;6.6;68
61571;BME280;47463;49.884;10.010;2024-03-17T22:45:01;101890;;;6.7;69
61571;BME280;47463;49.884;10.010;2024-03-17T22:50:01;102200;;;6.6;69
61571;BME280;47463;49.884;10.010;2024-03-17T22:55:01;102190;;;6.7;69
61571;BME280;47463;49.884;10.010;2024-03-17T23:00:01;102190;;;6.7;68
61571;BME280;47463;49.884;10.010;2024-03-17T23:05:01;102180;;;6.7;69
61571;BME280;47463;49.884;10.010;2024-03-17T23:10:01;102180;;;6.6;69
61571;BME280;47463;49.884;10.010;2024-03-17T23:15:01;102170;;;6.5;69
61571;BME280;47463;49.884;10.010;2024-03-17T23:20:01;102180;;;6.6;69
61571;BME280;47463;49.884;10.010;2024-03-17T23:25:01;102180;;;6.7;68
61571;BME280;47463;49.884;10.010;2024-03-17T23:30:01;102170;;;6.5;69
61571;BME280;47463;49.884;10.010;2024-03-17T23:35:01;102180;;;6.2;70
61571;BME280;47463;49.884;10.010;2024-03-17T23:40:01;102180;;;6;70
61571;BME280;47463;49.884;10.010;2024-03-17T23:45:01;102180;;;6;70
61571;BME280;47463;49.884;10.010;2024-03-17T23:50:01;102180;;;6;70
61571;BME280;47463;49.884;10.010;2024-03-17T23:55:01;102170;;;5.9;71
